Portada
METAR-TAF:

METAR-TAF

Aeropuertos :

Aeropuerto de Melilla

Melilla, España

latitud: 35-17N, longitud: 002-57W, altitud: 47 m

Observación

El informe se hizo hace 21 minutos, a las 19:00 UTC
Viento 6 kt del este, variando entre noreste y sureste
Temperatura 17°C
Humedad 82%
Presión 1016 hPa
Visibilidad 10 km o más
sin nubes por debajo de 1500 m y sin presencia de cumulonimbus.

METAR: GEML 291900Z AUTO 10006KT 050V140 CAVOK 17/14 Q1016

Hora: 20:21 (19:21 UTC)

Pronóstico

El informe se hizo hace 5 horas y 21 minutos, a las 14:00 UTC
Pronóstico válido del 29 a las 15 UTC al 30 a las 15 UTC
Viento 7 kt del este
Visibilidad 10 km o más
Escasas nubes a una altura de 2500 ft

TAF: GEML 291400Z 2915/3015 09007KT 9999 FEW025 TX19/3013Z TN13/3006Z

Observaciones y pronósticos meteorológicos de más de 4000 aeropuertos (mensajes METAR y TAF).

Los puntos amarillos y rojos representan las estaciones disponibles.

Ponga el ratón en el punto deseado para ver el nombre de la estación.

Haga clic para ver las observaciones y los pronósticos meteorológicos.

Para cambiar el mapa : haga clic en los botones verdes con una cruz de color negro para hacer un zoom, en el botón verde con un guión para alejar o en las flechas verdes para mapas adyacentes.


METAR-TAF: